Time;durP1;ratioP1;P1;durP2;ratioP2;P2;SDS_P1;SDS_P2;PMS_P1;PMS_P2;Temp;Humidity;BMP_temperature;BMP_pressure;BME280_temperature;BME280_humidity;BME280_pressure;Samples;Min_cycle;Max_cycle;Signal;HPM_P1;HPM_P2
2022/05/30 00:01:48;;;;;;;4.88;2.70;;;9.90;89.00;;;;;;5071907;28;20066;-79
2022/05/30 00:04:14;;;;;;;3.63;2.55;;;9.90;89.20;;;;;;5071494;28;20482;-81
2022/05/30 00:06:40;;;;;;;4.30;2.55;;;9.90;89.50;;;;;;5071999;28;20449;-81
2022/05/30 00:09:07;;;;;;;5.63;2.42;;;9.90;89.80;;;;;;5071482;28;20071;-81
2022/05/30 00:11:33;;;;;;;3.08;1.80;;;9.80;90.00;;;;;;5053640;28;20056;-81
2022/05/30 00:13:59;;;;;;;4.00;2.22;;;9.80;90.10;;;;;;5071589;28;20477;-80
2022/05/30 00:16:25;;;;;;;5.68;2.60;;;9.80;90.20;;;;;;5071514;28;20024;-81
2022/05/30 00:18:51;;;;;;;3.95;2.28;;;9.80;90.10;;;;;;5051447;28;20025;-81
2022/05/30 00:21:19;;;;;;;5.32;2.17;;;9.80;90.20;;;;;;5071390;28;20078;-81
2022/05/30 00:23:45;;;;;;;4.32;2.55;;;9.80;90.40;;;;;;5071521;28;20032;-81
2022/05/30 00:26:11;;;;;;;7.82;2.83;;;9.80;90.40;;;;;;5052909;28;20017;-80
2022/05/30 00:28:37;;;;;;;4.13;2.50;;;9.70;90.50;;;;;;5054067;28;20032;-80
2022/05/30 00:31:04;;;;;;;5.18;2.75;;;9.70;90.60;;;;;;5075157;28;20024;-80
2022/05/30 00:33:29;;;;;;;4.57;2.03;;;9.70;90.70;;;;;;5075303;28;20032;-80
2022/05/30 00:35:55;;;;;;;3.33;2.40;;;9.70;90.90;;;;;;5075558;28;20029;-81
2022/05/30 00:38:21;;;;;;;5.47;2.15;;;9.70;90.90;;;;;;5073629;28;20487;-81
2022/05/30 00:40:47;;;;;;;3.83;2.05;;;9.70;90.90;;;;;;5057588;28;20105;-81
2022/05/30 00:43:24;;;;;;;12.70;2.78;;;9.70;90.90;;;;;;5075346;28;20560;-81
2022/05/30 00:45:50;;;;;;;;;;;9.70;90.80;;;;;;5063200;28;20054;-80
2022/05/30 00:48:19;;;;;;;5.22;2.08;;;9.80;90.50;;;;;;5089560;28;19952;-82
2022/05/30 00:50:48;;;;;;;4.43;2.55;;;9.70;90.80;;;;;;5075504;28;20110;-82
2022/05/30 00:53:13;;;;;;;4.90;2.88;;;9.70;90.90;;;;;;5075150;28;20124;-81
2022/05/30 00:55:40;;;;;;;4.57;2.70;;;9.70;90.90;;;;;;5056844;28;20107;-81
2022/05/30 00:58:07;;;;;;;4.72;2.20;;;9.70;90.80;;;;;;5075059;28;20024;-81
2022/05/30 01:00:33;;;;;;;3.60;2.50;;;9.70;90.80;;;;;;5074647;28;20447;-81
2022/05/30 01:08:29;;;;;;;9.00;2.78;;;9.60;91.20;;;;;;5074623;28;20048;-81
2022/05/30 01:10:56;;;;;;;10.38;3.67;;;9.60;91.30;;;;;;5071878;28;20023;-81
2022/05/30 01:13:23;;;;;;;7.53;3.15;;;9.60;91.50;;;;;;5074625;28;20020;-81
2022/05/30 01:15:49;;;;;;;8.13;3.65;;;9.60;91.70;;;;;;5072910;28;20465;-80
2022/05/30 01:18:27;;;;;;;8.50;3.97;;;9.60;91.70;;;;;;5078163;28;20029;-80
2022/05/30 01:20:52;;;;;;;5.57;3.55;;;9.50;91.90;;;;;;5063119;28;20054;-80
2022/05/30 01:23:53;;;;;;;8.85;2.72;;;9.50;91.90;;;;;;5075077;28;20032;-81
2022/05/30 01:26:43;;;;;;;3.47;2.85;;;9.60;92.00;;;;;;5084240;28;20048;-81
2022/05/30 01:29:14;;;;;;;5.18;3.13;;;9.60;92.00;;;;;;5076090;28;20034;-80
2022/05/30 01:31:40;;;;;;;7.40;2.92;;;9.60;92.00;;;;;;5076647;28;20012;-82
2022/05/30 01:34:06;;;;;;;4.45;3.47;;;9.60;92.30;;;;;;5076335;28;20032;-81
2022/05/30 01:36:33;;;;;;;14.38;3.60;;;9.70;92.10;;;;;;5076348;28;20523;-81
2022/05/30 01:38:59;;;;;;;5.63;2.90;;;9.60;92.10;;;;;;5057619;28;20032;-80
2022/05/30 01:41:25;;;;;;;6.45;2.42;;;9.70;92.10;;;;;;5061144;28;20532;-81
2022/05/30 01:43:51;;;;;;;3.50;2.50;;;9.80;91.90;;;;;;5080953;28;20032;-80
2022/05/30 01:46:21;;;;;;;7.07;2.92;;;10.00;91.70;;;;;;5073658;28;20032;-79
2022/05/30 01:48:47;;;;;;;8.02;2.38;;;10.10;91.40;;;;;;5074118;28;20020;-79
2022/05/30 01:51:14;;;;;;;3.90;2.63;;;10.20;91.20;;;;;;5080742;28;20021;-82
2022/05/30 01:53:40;;;;;;;9.27;2.85;;;10.30;91.10;;;;;;5076974;28;20016;-81
2022/05/30 01:56:06;;;;;;;5.25;2.50;;;10.30;91.00;;;;;;5075182;28;20108;-79
2022/05/30 01:58:33;;;;;;;7.25;3.25;;;10.40;91.00;;;;;;5079868;28;20024;-80
2022/05/30 02:01:26;;;;;;;4.90;2.75;;;10.40;90.90;;;;;;5080612;28;20085;-81
2022/05/30 02:03:52;;;;;;;4.80;2.92;;;10.40;90.80;;;;;;5071328;28;20040;-82
2022/05/30 02:06:20;;;;;;;4.80;2.83;;;10.40;90.80;;;;;;5075382;28;20095;-82
2022/05/30 02:08:50;;;;;;;10.38;3.05;;;10.50;90.70;;;;;;5075432;28;20029;-82
2022/05/30 02:11:17;;;;;;;6.15;2.80;;;10.60;90.60;;;;;;5072504;28;20020;-81
2022/05/30 02:13:44;;;;;;;6.55;2.92;;;10.60;90.50;;;;;;5073562;28;20524;-82
2022/05/30 02:18:57;;;;;;;7.17;3.20;;;10.70;89.90;;;;;;5072577;28;20077;-81
2022/05/30 02:21:23;;;;;;;3.78;2.50;;;10.80;89.70;;;;;;5073788;28;20455;-80
2022/05/30 02:23:49;;;;;;;7.50;2.80;;;10.90;89.40;;;;;;5073322;28;20157;-81
2022/05/30 02:26:15;;;;;;;4.65;2.75;;;10.90;89.00;;;;;;5073297;28;20020;-80
2022/05/30 02:28:40;;;;;;;4.55;2.90;;;11.00;88.70;;;;;;5073986;28;20119;-80
2022/05/30 02:31:06;;;;;;;4.85;2.72;;;11.10;88.20;;;;;;5073681;28;20013;-81
2022/05/30 02:39:00;;;;;;;5.65;2.90;;;11.30;87.60;;;;;;5072723;28;20050;-81
2022/05/30 02:41:26;;;;;;;7.40;2.60;;;11.40;87.50;;;;;;5072568;28;20071;-81
2022/05/30 02:43:52;;;;;;;9.45;3.60;;;11.50;87.50;;;;;;5072674;28;20024;-80
2022/05/30 02:46:18;;;;;;;5.65;3.42;;;11.60;87.30;;;;;;5072077;28;20101;-82
2022/05/30 02:48:44;;;;;;;9.25;3.42;;;11.60;87.20;;;;;;5071077;28;20032;-81
2022/05/30 02:51:10;;;;;;;7.80;2.90;;;11.70;86.80;;;;;;5066661;28;20070;-81
2022/05/30 02:53:36;;;;;;;7.25;3.50;;;11.80;86.30;;;;;;5072964;28;20096;-81
2022/05/30 02:56:03;;;;;;;5.78;3.38;;;12.00;85.90;;;;;;5073219;28;20016;-81
2022/05/30 02:58:28;;;;;;;7.70;3.10;;;12.10;85.10;;;;;;5072361;28;20508;-81
2022/05/30 03:00:54;;;;;;;9.30;3.20;;;12.20;84.90;;;;;;5072214;28;20032;-81
2022/05/30 03:03:20;;;;;;;6.95;3.58;;;12.40;84.70;;;;;;5072774;28;20024;-81
2022/05/30 03:05:46;;;;;;;12.52;2.85;;;12.50;84.00;;;;;;5054263;28;20390;-81
2022/05/30 03:08:12;;;;;;;4.53;3.13;;;12.70;83.10;;;;;;5072528;28;20033;-81
2022/05/30 03:10:37;;;;;;;6.75;3.45;;;12.80;82.90;;;;;;5072715;28;20025;-78
2022/05/30 03:13:12;;;;;;;8.40;3.42;;;12.80;82.30;;;;;;5083195;28;20025;-81
2022/05/30 03:15:41;;;;;;;4.30;3.42;;;12.90;82.10;;;;;;5073261;28;20032;-83
2022/05/30 03:18:08;;;;;;;7.72;3.42;;;13.00;81.50;;;;;;5051686;28;20111;-82
2022/05/30 03:20:34;;;;;;;6.75;3.10;;;13.00;80.40;;;;;;5054144;28;20028;-80
2022/05/30 03:23:00;;;;;;;5.75;3.10;;;13.00;80.30;;;;;;5055267;28;20111;-82
2022/05/30 03:25:26;;;;;;;10.18;3.38;;;13.10;79.60;;;;;;5073266;28;20028;-79
2022/05/30 03:27:53;;;;;;;6.38;3.40;;;13.10;78.80;;;;;;5054827;28;20043;-81
2022/05/30 03:30:20;;;;;;;10.20;3.42;;;13.20;78.70;;;;;;5053850;28;20471;-80
2022/05/30 03:32:46;;;;;;;6.22;3.10;;;13.30;78.70;;;;;;5072343;28;20103;-82
2022/05/30 03:35:13;;;;;;;4.53;3.35;;;13.40;77.90;;;;;;5072134;28;20143;-81
2022/05/30 03:37:40;;;;;;;7.13;3.08;;;13.40;77.80;;;;;;5072832;28;20047;-82
2022/05/30 03:40:08;;;;;;;3.95;3.05;;;13.50;77.20;;;;;;5072392;28;20080;-82
2022/05/30 03:42:34;;;;;;;6.10;2.40;;;13.60;75.80;;;;;;5072346;28;20519;-82
2022/05/30 03:45:00;;;;;;;8.98;2.63;;;13.60;75.20;;;;;;5072278;28;20016;-82
2022/05/30 03:47:26;;;;;;;6.85;2.85;;;13.70;74.90;;;;;;5064914;28;20119;-83
2022/05/30 03:50:00;;;;;;;7.00;2.88;;;13.70;75.00;;;;;;5072133;28;20016;-82
2022/05/30 03:52:26;;;;;;;4.75;2.53;;;13.80;74.30;;;;;;5062833;28;20099;-83
2022/05/30 03:54:52;;;;;;;7.07;2.97;;;13.90;74.30;;;;;;5072374;28;20016;-82
2022/05/30 03:57:18;;;;;;;4.25;2.95;;;13.90;74.10;;;;;;5071997;28;20028;-83
2022/05/30 03:59:44;;;;;;;6.75;3.38;;;14.00;73.70;;;;;;5072664;28;20059;-82
2022/05/30 04:02:10;;;;;;;7.28;3.65;;;14.00;73.70;;;;;;5071822;28;20068;-82
2022/05/30 04:04:36;;;;;;;4.85;3.15;;;14.10;73.50;;;;;;5092264;28;20111;-80
2022/05/30 04:07:02;;;;;;;4.43;2.80;;;14.10;73.30;;;;;;5076259;28;20047;-81
2022/05/30 04:09:28;;;;;;;5.68;3.40;;;14.20;72.60;;;;;;5077349;28;20025;-81
2022/05/30 04:11:54;;;;;;;6.43;2.97;;;14.20;72.20;;;;;;5082800;28;20024;-81
2022/05/30 04:14:20;;;;;;;5.68;2.95;;;14.20;72.10;;;;;;5063339;28;20042;-82
2022/05/30 04:16:46;;;;;;;5.70;2.70;;;14.30;72.60;;;;;;5074589;28;20031;-84
2022/05/30 04:19:12;;;;;;;5.25;2.67;;;14.40;72.70;;;;;;5072572;28;20127;-81
2022/05/30 04:21:37;;;;;;;5.95;2.70;;;14.40;72.70;;;;;;5068309;28;20032;-82
2022/05/30 04:24:04;;;;;;;4.78;2.85;;;14.50;71.30;;;;;;5081243;28;20017;-82
2022/05/30 04:26:30;;;;;;;8.00;2.80;;;14.60;71.80;;;;;;5078838;28;20129;-83
2022/05/30 04:28:56;;;;;;;5.90;2.85;;;14.60;71.20;;;;;;5076310;28;20031;-82
2022/05/30 04:31:22;;;;;;;6.22;3.00;;;14.70;71.30;;;;;;5075939;28;20017;-82
2022/05/30 04:33:47;;;;;;;4.45;2.80;;;14.80;70.90;;;;;;5057619;28;20021;-84
2022/05/30 04:36:15;;;;;;;5.60;2.80;;;14.90;70.80;;;;;;5076065;28;20507;-82
2022/05/30 04:38:40;;;;;;;6.07;2.88;;;15.00;70.00;;;;;;5075776;28;20048;-82
2022/05/30 04:41:06;;;;;;;7.10;3.13;;;15.00;69.90;;;;;;5075823;28;20083;-82
2022/05/30 04:43:32;;;;;;;6.60;3.25;;;15.10;70.30;;;;;;5076010;28;20052;-81
2022/05/30 04:46:05;;;;;;;7.38;2.72;;;15.10;69.20;;;;;;5075442;28;20039;-82
2022/05/30 04:48:32;;;;;;;5.68;2.97;;;15.20;69.50;;;;;;5069285;28;20029;-83
2022/05/30 04:50:57;;;;;;;10.48;2.72;;;15.30;69.40;;;;;;5082320;28;20063;-83
2022/05/30 04:53:23;;;;;;;7.30;2.33;;;15.40;69.00;;;;;;5077096;28;20005;-83
2022/05/30 04:55:49;;;;;;;5.57;2.35;;;15.50;67.70;;;;;;5075382;28;20390;-80
2022/05/30 04:58:15;;;;;;;3.22;2.40;;;15.50;68.40;;;;;;5075308;28;20024;-82
2022/05/30 05:00:40;;;;;;;7.22;2.10;;;15.50;67.70;;;;;;5076075;28;20039;-82
2022/05/30 05:03:06;;;;;;;4.63;2.00;;;15.70;67.10;;;;;;5075264;28;20497;-82
2022/05/30 05:05:32;;;;;;;5.05;2.10;;;16.10;66.10;;;;;;5076318;28;20025;-83
2022/05/30 05:08:32;;;;;;;4.78;1.70;;;16.90;64.50;;;;;;5075606;28;20133;-83
2022/05/30 05:11:17;;;;;;;5.60;1.98;;;18.40;62.00;;;;;;5075572;28;20471;-83
2022/05/30 05:13:43;;;;;;;7.82;1.75;;;19.70;57.10;;;;;;5080320;28;20050;-82
2022/05/30 05:16:09;;;;;;;2.58;1.30;;;20.70;54.80;;;;;;5090735;28;20021;-81
2022/05/30 05:18:35;;;;;;;4.80;1.80;;;21.60;50.80;;;;;;5068353;28;20078;-85
2022/05/30 05:21:01;;;;;;;4.28;2.42;;;;;;;;;;5079097;28;20016;-84
2022/05/30 05:23:27;;;;;;;3.92;1.55;;;23.50;46.30;;;;;;5060124;28;20024;-82
2022/05/30 05:25:53;;;;;;;4.60;2.25;;;24.10;45.10;;;;;;5076049;28;20020;-84
2022/05/30 05:28:19;;;;;;;4.05;1.75;;;24.90;44.00;;;;;;5077183;28;20079;-83
2022/05/30 05:30:44;;;;;;;7.20;2.25;;;25.80;42.60;;;;;;5076982;28;20027;-83
2022/05/30 05:33:11;;;;;;;3.83;2.00;;;26.60;40.50;;;;;;5076489;28;20462;-82
2022/05/30 05:35:44;;;;;;;5.53;2.03;;;27.30;39.50;;;;;;5080748;28;20024;-82
2022/05/30 05:38:10;;;;;;;12.05;1.92;;;28.00;39.10;;;;;;5080264;28;20032;-83
2022/05/30 05:40:40;;;;;;;3.17;1.83;;;28.50;38.00;;;;;;5074496;28;20055;-84
2022/05/30 05:43:07;;;;;;;3.20;1.58;;;29.10;36.90;;;;;;5056750;28;20044;-84
2022/05/30 05:45:37;;;;;;;6.07;1.73;;;29.40;35.00;;;;;;5074222;28;20063;-84
2022/05/30 05:48:03;;;;;;;3.47;1.33;;;29.10;34.80;;;;;;5074742;28;20066;-84
2022/05/30 05:50:30;;;;;;;3.75;1.33;;;29.00;34.80;;;;;;5074447;28;20021;-83
2022/05/30 05:52:56;;;;;;;5.72;1.42;;;29.40;35.00;;;;;;5074246;28;20021;-82
2022/05/30 05:55:22;;;;;;;4.15;1.13;;;30.00;34.30;;;;;;5074316;28;20028;-81
2022/05/30 05:57:48;;;;;;;4.50;1.63;;;30.30;33.20;;;;;;5055940;28;20045;-81
2022/05/30 06:00:15;;;;;;;2.63;1.50;;;30.70;32.00;;;;;;5031583;28;20624;-82
2022/05/30 06:02:41;;;;;;;2.80;1.45;;;31.10;31.60;;;;;;5023117;28;20483;-81
2022/05/30 06:05:09;;;;;;;6.50;1.23;;;31.30;31.30;;;;;;5032144;28;20033;-83
2022/05/30 06:07:39;;;;;;;3.88;1.65;;;31.60;32.70;;;;;;5015372;28;20372;-84
2022/05/30 06:10:07;;;;;;;8.45;1.63;;;32.00;30.90;;;;;;5032189;28;20420;-83
2022/05/30 06:12:45;;;;;;;2.65;1.13;;;33.00;31.00;;;;;;5048024;28;20037;-82
2022/05/30 06:15:17;;;;;;;1.90;1.00;;;33.30;29.00;;;;;;5031561;28;20391;-82
2022/05/30 06:17:44;;;;;;;1.25;0.73;;;33.80;28.90;;;;;;5031057;28;20045;-83
2022/05/30 06:20:12;;;;;;;3.00;0.98;;;34.10;28.00;;;;;;5046291;28;20029;-83
2022/05/30 06:22:38;;;;;;;3.95;1.08;;;34.10;28.30;;;;;;5031428;28;20041;-83
2022/05/30 06:25:05;;;;;;;2.90;0.97;;;35.10;28.30;;;;;;5034210;28;20046;-81
2022/05/30 06:27:31;;;;;;;3.65;0.95;;;35.70;28.00;;;;;;5035215;28;20083;-85
2022/05/30 06:29:57;;;;;;;2.92;0.80;;;36.00;27.60;;;;;;5014825;28;20491;-84
2022/05/30 06:32:23;;;;;;;2.77;1.17;;;35.90;27.30;;;;;;5031762;28;20041;-84
2022/05/30 06:34:49;;;;;;;3.05;1.70;;;35.80;27.10;;;;;;5031642;28;20120;-82
2022/05/30 06:37:14;;;;;;;3.13;1.23;;;36.30;27.20;;;;;;5045022;28;20549;-82
2022/05/30 06:39:40;;;;;;;2.70;1.20;;;36.20;27.00;;;;;;5051825;28;20074;-84
2022/05/30 06:42:14;;;;;;;2.53;1.10;;;36.80;26.60;;;;;;5056674;28;20025;-86
2022/05/30 06:44:40;;;;;;;7.88;1.92;;;36.50;26.30;;;;;;5075462;28;20095;-86
2022/05/30 06:47:10;;;;;;;1.40;1.02;;;36.60;26.80;;;;;;5058203;28;20870;-83
2022/05/30 06:49:36;;;;;;;2.95;1.08;;;36.80;26.10;;;;;;5082945;28;20394;-84
2022/05/30 06:52:02;;;;;;;2.17;1.20;;;36.50;26.10;;;;;;5055493;28;20094;-85
2022/05/30 06:54:28;;;;;;;7.43;1.17;;;36.90;26.20;;;;;;5056251;28;20070;-84
2022/05/30 06:59:49;;;;;;;2.88;1.05;;;38.20;26.00;;;;;;5020929;28;20439;-87
2022/05/30 07:02:15;;;;;;;3.38;1.05;;;38.50;25.40;;;;;;5058107;28;20020;-85
2022/05/30 07:04:41;;;;;;;4.20;1.30;;;38.40;25.40;;;;;;5074415;28;20016;-84
2022/05/30 07:07:07;;;;;;;3.58;1.55;;;38.60;25.40;;;;;;5076686;28;20021;-83
2022/05/30 07:09:34;;;;;;;6.57;2.03;;;38.80;25.10;;;;;;5077694;28;20016;-83
2022/05/30 07:12:00;;;;;;;1.67;1.05;;;39.00;25.00;;;;;;5073386;28;20032;-83
2022/05/30 07:14:26;;;;;;;7.38;1.13;;;39.20;25.30;;;;;;5072651;28;20075;-83
2022/05/30 07:16:52;;;;;;;3.50;1.30;;;39.20;25.30;;;;;;5072980;28;20060;-83
2022/05/30 07:19:18;;;;;;;5.82;1.45;;;38.20;24.80;;;;;;5073190;28;20440;-83
2022/05/30 07:21:44;;;;;;;5.93;1.38;;;36.80;25.60;;;;;;5073060;28;20032;-84
2022/05/30 07:24:13;;;;;;;3.73;1.43;;;36.70;26.00;;;;;;5070660;28;20061;-84
2022/05/30 07:26:39;;;;;;;2.42;1.30;;;37.10;26.00;;;;;;5073349;28;20035;-84
2022/05/30 07:29:05;;;;;;;7.53;1.60;;;35.60;25.80;;;;;;5054531;28;20013;-86
2022/05/30 07:31:31;;;;;;;6.15;1.65;;;33.10;27.00;;;;;;5054686;28;20024;-84
2022/05/30 07:33:57;;;;;;;5.17;1.57;;;32.70;28.10;;;;;;5072002;28;20016;-83
2022/05/30 07:36:29;;;;;;;3.03;1.65;;;33.70;27.80;;;;;;5072754;28;20016;-86
2022/05/30 07:38:55;;;;;;;6.47;2.55;;;35.10;27.40;;;;;;5072236;28;20040;-84
2022/05/30 07:41:23;;;;;;;5.18;1.27;;;36.00;26.70;;;;;;5075169;28;20021;-86
2022/05/30 07:43:58;;;;;;;3.58;1.30;;;36.50;26.80;;;;;;5060508;28;20509;-86
2022/05/30 07:46:25;;;;;;;3.25;1.50;;;37.10;26.50;;;;;;5074350;28;20049;-84
2022/05/30 07:48:53;;;;;;;2.30;1.27;;;35.60;25.60;;;;;;5073608;28;20041;-85
2022/05/30 07:51:19;;;;;;;3.40;1.20;;;32.50;26.20;;;;;;5073210;28;20051;-83
2022/05/30 07:53:45;;;;;;;2.88;1.80;;;30.40;28.50;;;;;;5072676;28;20021;-80
2022/05/30 07:56:14;;;;;;;3.33;1.55;;;29.40;29.30;;;;;;5071951;28;20107;-83
2022/05/30 07:58:40;;;;;;;5.57;1.80;;;28.80;29.90;;;;;;5052602;28;20484;-82
2022/05/30 08:01:10;;;;;;;4.50;1.60;;;30.40;29.70;;;;;;5080245;28;20056;-80
2022/05/30 08:03:36;;;;;;;6.32;2.33;;;32.50;28.70;;;;;;5078553;28;20032;-81
2022/05/30 08:06:06;;;;;;;4.40;1.47;;;34.20;28.00;;;;;;5074263;28;20591;-82
2022/05/30 08:08:32;;;;;;;2.72;1.25;;;36.10;27.50;;;;;;5072035;28;20052;-84
2022/05/30 08:10:57;;;;;;;4.63;1.53;;;35.00;25.90;;;;;;5072418;28;20113;-83
2022/05/30 08:13:23;;;;;;;6.03;2.07;;;32.60;27.20;;;;;;5063761;28;20025;-82
2022/05/30 08:15:49;;;;;;;7.68;1.73;;;30.80;28.30;;;;;;5051898;28;20111;-83
2022/05/30 08:18:17;;;;;;;3.65;1.48;;;29.20;29.20;;;;;;5071608;28;20485;-82
2022/05/30 08:20:43;;;;;;;3.42;1.50;;;29.90;29.50;;;;;;5071792;28;20035;-81
2022/05/30 08:23:09;;;;;;;3.53;1.30;;;32.00;28.90;;;;;;5071780;28;20028;-82
2022/05/30 08:25:37;;;;;;;4.77;2.67;;;35.90;27.40;;;;;;5071957;28;20466;-81
2022/05/30 08:28:03;;;;;;;5.47;1.98;;;36.20;26.40;;;;;;5054493;28;20056;-83
2022/05/30 08:30:29;;;;;;;2.70;1.27;;;37.60;25.50;;;;;;5073988;28;20080;-78
2022/05/30 08:32:55;;;;;;;5.28;1.92;;;39.00;24.80;;;;;;5070848;28;20021;-83
2022/05/30 08:35:22;;;;;;;7.20;5.43;;;39.00;24.40;;;;;;5071826;28;20016;-87
2022/05/30 08:37:48;;;;;;;3.17;1.40;;;39.30;24.10;;;;;;5071486;28;20025;-84
2022/05/30 08:43:15;;;;;;;1.90;1.10;;;40.80;24.30;;;;;;5067782;28;20100;-83
2022/05/30 08:45:44;;;;;;;3.28;1.48;;;41.20;23.90;;;;;;5071014;28;20035;-80
2022/05/30 08:48:13;;;;;;;4.32;1.10;;;40.10;23.50;;;;;;5071347;28;20074;-82
2022/05/30 08:50:53;;;;;;;4.85;1.30;;;38.60;24.30;;;;;;5063521;28;20397;-82
2022/05/30 08:53:37;;;;;;;2.55;1.67;;;39.20;24.20;;;;;;5068486;28;20024;-82
2022/05/30 08:56:10;;;;;;;3.63;1.15;;;40.40;24.50;;;;;;5072052;28;20028;-83
2022/05/30 08:59:01;;;;;;;3.13;0.93;;;40.60;23.80;;;;;;5075602;28;20112;-84
2022/05/30 09:01:29;;;;;;;3.55;1.52;;;40.00;24.20;;;;;;5057981;28;20761;-89
2022/05/30 09:04:13;;;;;;;3.65;1.33;;;39.20;23.90;;;;;;5079918;28;20075;-89
2022/05/30 09:06:56;;;;;;;2.65;1.05;;;39.40;24.10;;;;;;5058977;28;20043;-88
2022/05/30 09:09:29;;;;;;;2.75;1.15;;;;;;;;;;5076554;28;20017;-88
2022/05/30 09:12:02;;;;;;;4.60;1.27;;;;;;;;;;5070582;28;20028;-86
2022/05/30 09:14:31;;;;;;;5.45;1.67;;;;;;;;;;5090231;28;20029;-87
2022/05/30 09:17:01;;;;;;;16.02;4.38;;;40.50;24.00;;;;;;5078484;28;20029;-86
2022/05/30 09:19:27;;;;;;;4.70;1.75;;;40.50;23.70;;;;;;5076077;28;20050;-84
2022/05/30 09:22:01;;;;;;;2.63;1.70;;;40.60;23.60;;;;;;5056387;28;20064;-87
2022/05/30 09:24:29;;;;;;;2.75;1.10;;;40.50;23.50;;;;;;5076791;28;20016;-85
2022/05/30 09:26:57;;;;;;;3.10;1.20;;;40.80;23.20;;;;;;5075670;28;20505;-84
2022/05/30 09:29:32;;;;;;;3.50;1.50;;;;;;;;;;5078783;28;20470;-87
2022/05/30 09:32:04;;;;;;;2.83;1.20;;;38.00;30.30;;;;;;5070470;28;20054;-85
2022/05/30 09:34:45;;;;;;;3.55;1.30;;;37.60;33.30;;;;;;5077393;28;20081;-87
2022/05/30 09:37:31;;;;;;;4.45;1.60;;;36.40;24.40;;;;;;5069501;28;20031;-87
2022/05/30 09:39:57;;;;;;;1.73;1.30;;;34.00;25.40;;;;;;5073974;28;20017;-84
2022/05/30 09:42:34;;;;;;;4.33;1.80;;;31.90;26.70;;;;;;5066391;28;20481;-83
2022/05/30 09:45:23;;;;;;;5.25;1.50;;;30.80;27.80;;;;;;5056644;28;20032;-84
2022/05/30 09:48:03;;;;;;;5.00;1.90;;;29.60;28.10;;;;;;5052926;28;20045;-86
2022/05/30 09:50:28;;;;;;;3.28;1.70;;;28.80;29.10;;;;;;5074658;28;20064;-82
2022/05/30 09:52:54;;;;;;;3.93;1.57;;;29.40;29.40;;;;;;5073530;28;20430;-81
2022/05/30 09:55:37;;;;;;;6.30;2.00;;;31.20;28.30;;;;;;5073731;28;20366;-82
2022/05/30 09:58:05;;;;;;;3.17;1.52;;;33.70;27.60;;;;;;5074069;28;20159;-82
2022/05/30 10:00:40;;;;;;;2.28;1.48;;;35.50;25.80;;;;;;5061206;28;20013;-85
2022/05/30 10:03:23;;;;;;;7.15;1.92;;;35.10;25.60;;;;;;5055741;28;20017;-84
2022/05/30 10:05:49;;;;;;;3.47;1.50;;;33.60;26.20;;;;;;5074477;28;20035;-83
2022/05/30 10:08:27;;;;;;;3.60;1.70;;;32.70;27.20;;;;;;5073416;28;20090;-85
2022/05/30 10:10:56;;;;;;;3.83;2.10;;;33.20;27.40;;;;;;5074118;28;20428;-84
2022/05/30 10:13:41;;;;;;;3.25;1.40;;;34.50;27.20;;;;;;5058786;28;20029;-88
2022/05/30 10:16:12;;;;;;;5.20;1.55;;;35.40;25.90;;;;;;5056168;28;20028;-85
2022/05/30 10:19:04;;;;;;;2.17;1.27;;;34.40;25.60;;;;;;5074411;28;20124;-84
2022/05/30 10:31:12;;;;;;;4.80;1.42;;;30.70;27.70;;;;;;5066978;28;20034;-82
2022/05/30 10:33:38;;;;;;;3.25;1.48;;;28.20;29.20;;;;;;5013645;28;20490;-84
2022/05/30 10:36:21;;;;;;;2.78;1.38;;;26.40;30.90;;;;;;5073586;28;20038;-82
2022/05/30 10:39:06;;;;;;;3.55;1.63;;;25.40;31.50;;;;;;5070096;28;20033;-81
2022/05/30 10:41:37;;;;;;;3.42;1.88;;;23.80;32.30;;;;;;5055634;28;20020;-83
2022/05/30 10:44:16;;;;;;;3.10;1.33;;;23.50;33.70;;;;;;5074943;28;20358;-83
2022/05/30 10:47:16;;;;;;;2.30;1.40;;;22.90;35.00;;;;;;5073473;28;20047;-83
2022/05/30 10:49:58;;;;;;;5.90;1.65;;;22.40;35.70;;;;;;5079787;28;20437;-83
2022/05/30 10:52:32;;;;;;;3.65;1.80;;;22.30;36.00;;;;;;5066454;28;20044;-81
2022/05/30 10:55:14;;;;;;;9.23;2.30;;;22.40;36.50;;;;;;5072604;28;20021;-82
2022/05/30 10:57:44;;;;;;;2.78;1.88;;;22.40;36.70;;;;;;5068314;28;20047;-80
2022/05/30 11:00:15;;;;;;;3.15;1.38;;;22.40;37.10;;;;;;5073264;28;20017;-82
2022/05/30 11:03:03;;;;;;;6.07;1.63;;;22.50;36.50;;;;;;5072527;28;20074;-83
2022/05/30 11:06:23;;;;;;;3.20;1.50;;;22.40;36.20;;;;;;5054952;28;20020;-85
2022/05/30 11:09:07;;;;;;;3.03;1.48;;;22.10;36.50;;;;;;5035402;28;20517;-85
2022/05/30 11:11:51;;;;;;;2.67;1.23;;;21.80;36.50;;;;;;5072833;28;20017;-85
2022/05/30 11:14:45;;;;;;;2.03;1.45;;;21.50;36.90;;;;;;5072155;28;20029;-83
2022/05/30 11:17:40;;;;;;;2.92;1.98;;;21.50;37.60;;;;;;5073097;28;20033;-81
2022/05/30 11:20:13;;;;;;;3.25;1.60;;;21.50;38.60;;;;;;5054946;28;20092;-85
2022/05/30 11:22:42;;;;;;;2.75;1.85;;;21.50;38.20;;;;;;5074302;28;20066;-85
2022/05/30 11:25:12;;;;;;;5.38;1.92;;;21.40;37.90;;;;;;5076859;28;20584;-85
2022/05/30 11:27:48;;;;;;;3.88;1.30;;;21.30;37.80;;;;;;5069961;28;20100;-83
2022/05/30 11:30:50;;;;;;;2.10;1.40;;;21.20;38.40;;;;;;5070885;28;20063;-90
2022/05/30 11:33:47;;;;;;;5.30;1.73;;;21.20;37.90;;;;;;5032812;28;20132;-90
2022/05/30 11:36:38;;;;;;;2.67;1.63;;;21.10;38.30;;;;;;5088970;28;20446;-85
2022/05/30 11:39:41;;;;;;;3.42;1.60;;;21.10;38.60;;;;;;5070066;28;20059;-83
2022/05/30 11:42:40;;;;;;;1.85;1.40;;;21.00;38.00;;;;;;5072073;28;20421;-84
2022/05/30 11:45:29;;;;;;;1.50;1.17;;;20.70;38.20;;;;;;5091416;28;20070;-83
2022/05/30 11:48:14;;;;;;;3.92;1.40;;;20.60;38.80;;;;;;5038863;28;20390;-88
2022/05/30 11:50:54;;;;;;;4.30;2.35;;;20.70;38.90;;;;;;5075778;28;20029;-85
2022/05/30 11:53:44;;;;;;;5.55;2.22;;;20.80;39.80;;;;;;5071300;28;20025;-85
2022/05/30 11:56:26;;;;;;;3.13;1.88;;;21.00;39.80;;;;;;5055091;28;20385;-83
2022/05/30 11:59:10;;;;;;;4.82;2.33;;;21.10;39.70;;;;;;5056960;28;20170;-85
2022/05/30 12:01:40;;;;;;;5.28;1.70;;;21.10;39.70;;;;;;5074890;28;20017;-83
2022/05/30 12:04:40;;;;;;;4.30;1.70;;;21.20;38.00;;;;;;5074130;28;20516;-82
2022/05/30 12:07:32;;;;;;;6.57;1.83;;;21.10;38.00;;;;;;5054083;28;20029;-82
2022/05/30 12:10:18;;;;;;;3.67;1.80;;;21.10;38.30;;;;;;5063742;28;20027;-84
2022/05/30 12:13:02;;;;;;;3.20;1.92;;;21.10;38.30;;;;;;5072582;28;20029;-84
2022/05/30 12:15:48;;;;;;;3.45;1.60;;;21.10;38.20;;;;;;5074656;28;20060;-90
2022/05/30 12:24:23;;;;;;;9.55;5.22;;;21.10;38.70;;;;;;5073952;28;20410;-83
2022/05/30 12:27:00;;;;;;;7.25;2.97;;;21.00;39.10;;;;;;5065520;28;20051;-82
2022/05/30 12:29:53;;;;;;;4.82;2.30;;;21.10;39.20;;;;;;5075966;28;20021;-82
2022/05/30 12:32:23;;;;;;;3.05;2.08;;;21.20;39.20;;;;;;5073308;28;20049;-81
2022/05/30 12:35:01;;;;;;;4.15;2.45;;;21.30;38.30;;;;;;5076280;28;20048;-84
2022/05/30 12:37:44;;;;;;;3.30;2.33;;;21.30;38.60;;;;;;5075945;28;20553;-84
2022/05/30 12:40:35;;;;;;;3.17;1.90;;;21.30;38.60;;;;;;5076650;28;20020;-87
2022/05/30 12:43:16;;;;;;;2.42;2.08;;;21.20;38.20;;;;;;5060980;28;20454;-85
2022/05/30 12:45:54;;;;;;;6.25;2.10;;;21.00;38.80;;;;;;5078688;28;20033;-89
2022/05/30 12:48:35;;;;;;;5.88;2.15;;;21.00;39.20;;;;;;5079322;28;20471;-83
2022/05/30 12:51:35;;;;;;;4.88;2.35;;;21.10;39.00;;;;;;5080766;28;20028;-87
2022/05/30 12:54:01;;;;;;;8.50;2.20;;;21.20;38.60;;;;;;5065826;28;20031;-84
2022/05/30 12:56:39;;;;;;;7.25;2.33;;;21.20;38.60;;;;;;5057182;28;20028;-86
2022/05/30 12:59:16;;;;;;;5.28;2.95;;;21.30;38.50;;;;;;5066033;28;20562;-85
2022/05/30 13:01:45;;;;;;;4.65;2.33;;;21.40;38.60;;;;;;5075786;28;20040;-82
2022/05/30 13:04:19;;;;;;;6.43;2.78;;;21.40;38.70;;;;;;5075793;28;20048;-84
2022/05/30 13:06:57;;;;;;;3.13;1.95;;;21.50;39.40;;;;;;5075520;28;20013;-84
2022/05/30 13:09:23;;;;;;;2.58;1.65;;;21.50;38.10;;;;;;5076995;28;20029;-83
2022/05/30 13:12:11;;;;;;;4.93;2.10;;;21.40;37.60;;;;;;5075626;28;20028;-83
2022/05/30 13:14:36;;;;;;;4.25;1.92;;;21.20;37.90;;;;;;5063642;28;20040;-85
2022/05/30 13:17:18;;;;;;;5.07;2.17;;;21.10;38.30;;;;;;5059620;28;20062;-89
2022/05/30 13:19:59;;;;;;;5.05;2.40;;;21.20;38.20;;;;;;5076486;28;20034;-81
2022/05/30 13:22:39;;;;;;;3.05;1.60;;;21.30;38.20;;;;;;5075336;28;20032;-81
2022/05/30 13:25:07;;;;;;;4.97;1.83;;;21.40;37.80;;;;;;5089324;28;20063;-85
2022/05/30 13:27:33;;;;;;;2.80;1.77;;;21.30;37.90;;;;;;5075833;28;20028;-84
2022/05/30 13:30:06;;;;;;;3.10;1.40;;;21.20;38.20;;;;;;5070976;28;20079;-84
2022/05/30 13:32:33;;;;;;;7.03;2.40;;;21.30;37.90;;;;;;5057312;28;20024;-80
2022/05/30 13:35:09;;;;;;;7.60;2.33;;;21.50;37.80;;;;;;5074255;28;20036;-83
2022/05/30 13:37:38;;;;;;;3.75;1.58;;;21.70;37.60;;;;;;5075704;28;20040;-84
2022/05/30 13:40:08;;;;;;;2.25;1.33;;;21.70;37.20;;;;;;5075845;28;20138;-81
2022/05/30 13:42:56;;;;;;;3.58;1.80;;;21.70;37.50;;;;;;5075107;28;20032;-83
2022/05/30 13:45:27;;;;;;;5.22;1.88;;;21.60;37.90;;;;;;5062774;28;20021;-82
2022/05/30 13:48:14;;;;;;;5.00;2.45;;;21.60;38.10;;;;;;5075093;28;20053;-84